sensor_id;sensor_type;location;lat;lon;timestamp;P1;P2;P0
78512;PMS5003;67809;55.034;73.462;2023-02-18T00:01:41;25.50;19.00;12.25
78512;PMS5003;67809;55.034;73.462;2023-02-18T00:04:08;27.75;20.50;12.50
78512;PMS5003;67809;55.034;73.462;2023-02-18T00:06:34;26.00;20.00;10.75
78512;PMS5003;67809;55.034;73.462;2023-02-18T00:09:10;26.75;20.50;11.50
78512;PMS5003;67809;55.034;73.462;2023-02-18T00:11:37;26.00;19.25;10.75
78512;PMS5003;67809;55.034;73.462;2023-02-18T00:14:13;25.25;18.50;10.50
78512;PMS5003;67809;55.034;73.462;2023-02-18T00:16:40;22.67;18.00;10.67
78512;PMS5003;67809;55.034;73.462;2023-02-18T00:19:09;23.00;16.75;9.00
78512;PMS5003;67809;55.034;73.462;2023-02-18T00:21:41;27.00;19.50;13.00
78512;PMS5003;67809;55.034;73.462;2023-02-18T00:24:08;26.25;20.00;11.50
78512;PMS5003;67809;55.034;73.462;2023-02-18T00:26:34;21.00;16.33;9.67
78512;PMS5003;67809;55.034;73.462;2023-02-18T00:29:00;26.00;19.50;11.00
78512;PMS5003;67809;55.034;73.462;2023-02-18T00:31:37;26.25;19.00;12.00
78512;PMS5003;67809;55.034;73.462;2023-02-18T00:34:09;23.50;18.75;11.25
78512;PMS5003;67809;55.034;73.462;2023-02-18T00:36:38;25.50;19.00;10.75
78512;PMS5003;67809;55.034;73.462;2023-02-18T00:39:05;26.50;18.50;12.00
78512;PMS5003;67809;55.034;73.462;2023-02-18T00:41:32;27.50;21.00;12.50
78512;PMS5003;67809;55.034;73.462;2023-02-18T00:44:03;28.00;20.25;11.25
78512;PMS5003;67809;55.034;73.462;2023-02-18T00:46:29;27.00;20.00;10.75
78512;PMS5003;67809;55.034;73.462;2023-02-18T00:48:55;25.50;19.50;10.75
78512;PMS5003;67809;55.034;73.462;2023-02-18T00:51:23;22.00;16.75;11.00
78512;PMS5003;67809;55.034;73.462;2023-02-18T00:54:00;28.25;20.50;11.75
78512;PMS5003;67809;55.034;73.462;2023-02-18T00:56:26;25.50;19.25;11.00
78512;PMS5003;67809;55.034;73.462;2023-02-18T00:58:52;24.50;18.00;11.00
78512;PMS5003;67809;55.034;73.462;2023-02-18T01:01:24;23.00;17.50;10.00
78512;PMS5003;67809;55.034;73.462;2023-02-18T01:03:50;23.75;16.75;10.00
78512;PMS5003;67809;55.034;73.462;2023-02-18T01:06:16;25.67;18.67;11.33
78512;PMS5003;67809;55.034;73.462;2023-02-18T01:08:42;26.50;19.25;10.75
78512;PMS5003;67809;55.034;73.462;2023-02-18T01:11:09;29.00;21.75;11.00
78512;PMS5003;67809;55.034;73.462;2023-02-18T01:13:36;22.25;16.25;8.75
78512;PMS5003;67809;55.034;73.462;2023-02-18T01:16:10;22.50;18.00;10.00
78512;PMS5003;67809;55.034;73.462;2023-02-18T01:18:36;20.75;16.25;9.25
78512;PMS5003;67809;55.034;73.462;2023-02-18T01:21:14;29.00;23.00;13.75
78512;PMS5003;67809;55.034;73.462;2023-02-18T01:23:41;26.00;20.00;11.25
78512;PMS5003;67809;55.034;73.462;2023-02-18T01:26:17;24.75;17.75;10.25
78512;PMS5003;67809;55.034;73.462;2023-02-18T01:28:43;27.00;20.50;10.50
78512;PMS5003;67809;55.034;73.462;2023-02-18T01:31:15;22.75;16.75;10.00
78512;PMS5003;67809;55.034;73.462;2023-02-18T01:33:42;24.50;17.50;9.00
78512;PMS5003;67809;55.034;73.462;2023-02-18T01:36:08;22.50;18.00;11.00
78512;PMS5003;67809;55.034;73.462;2023-02-18T01:38:35;25.67;20.33;11.00
78512;PMS5003;67809;55.034;73.462;2023-02-18T01:41:02;27.50;20.75;12.00
78512;PMS5003;67809;55.034;73.462;2023-02-18T01:43:28;29.00;20.75;11.75
78512;PMS5003;67809;55.034;73.462;2023-02-18T01:46:02;24.50;18.25;11.00
78512;PMS5003;67809;55.034;73.462;2023-02-18T01:54:02;23.50;17.75;9.75
78512;PMS5003;67809;55.034;73.462;2023-02-18T01:58:53;25.50;19.50;11.25
78512;PMS5003;67809;55.034;73.462;2023-02-18T02:01:20;24.50;20.00;10.75
78512;PMS5003;67809;55.034;73.462;2023-02-18T02:03:46;22.50;18.00;10.75
78512;PMS5003;67809;55.034;73.462;2023-02-18T02:06:17;30.75;22.00;12.00
78512;PMS5003;67809;55.034;73.462;2023-02-18T02:08:44;28.33;21.33;12.67
78512;PMS5003;67809;55.034;73.462;2023-02-18T02:11:17;23.50;19.00;11.00
78512;PMS5003;67809;55.034;73.462;2023-02-18T02:16:56;23.75;18.50;11.25
78512;PMS5003;67809;55.034;73.462;2023-02-18T02:35:32;24.50;19.75;12.25
78512;PMS5003;67809;55.034;73.462;2023-02-18T02:38:02;31.00;24.33;15.33
78512;PMS5003;67809;55.034;73.462;2023-02-18T02:45:53;30.50;23.00;13.50
78512;PMS5003;67809;55.034;73.462;2023-02-18T02:53:30;27.00;20.50;12.00
78512;PMS5003;67809;55.034;73.462;2023-02-18T02:56:15;30.00;21.25;11.75
78512;PMS5003;67809;55.034;73.462;2023-02-18T02:58:55;28.50;23.50;14.00
78512;PMS5003;67809;55.034;73.462;2023-02-18T03:01:39;29.50;22.50;13.75
78512;PMS5003;67809;55.034;73.462;2023-02-18T03:17:59;35.00;26.67;15.33
78512;PMS5003;67809;55.034;73.462;2023-02-18T03:20:36;32.00;24.50;13.50
78512;PMS5003;67809;55.034;73.462;2023-02-18T03:23:10;33.50;24.75;15.25
78512;PMS5003;67809;55.034;73.462;2023-02-18T03:25:39;33.00;24.25;15.50
78512;PMS5003;67809;55.034;73.462;2023-02-18T03:28:24;31.50;24.00;14.25
78512;PMS5003;67809;55.034;73.462;2023-02-18T03:31:10;24.50;20.25;13.00
78512;PMS5003;67809;55.034;73.462;2023-02-18T03:33:46;34.00;23.50;12.25
78512;PMS5003;67809;55.034;73.462;2023-02-18T03:36:24;30.75;23.75;13.75
78512;PMS5003;67809;55.034;73.462;2023-02-18T03:38:55;35.00;25.33;15.33
78512;PMS5003;67809;55.034;73.462;2023-02-18T03:41:34;31.00;22.50;13.25
78512;PMS5003;67809;55.034;73.462;2023-02-18T03:44:02;34.25;25.25;15.75
78512;PMS5003;67809;55.034;73.462;2023-02-18T03:46:29;28.25;22.00;13.50
78512;PMS5003;67809;55.034;73.462;2023-02-18T03:48:57;30.33;24.00;14.67
78512;PMS5003;67809;55.034;73.462;2023-02-18T03:51:23;34.50;25.75;16.00
78512;PMS5003;67809;55.034;73.462;2023-02-18T03:53:49;38.75;28.00;16.00
78512;PMS5003;67809;55.034;73.462;2023-02-18T03:56:16;29.75;23.50;14.50
78512;PMS5003;67809;55.034;73.462;2023-02-18T03:58:42;39.00;28.33;16.67
78512;PMS5003;67809;55.034;73.462;2023-02-18T04:01:08;40.50;30.00;18.75
78512;PMS5003;67809;55.034;73.462;2023-02-18T04:03:35;38.25;28.75;16.50
78512;PMS5003;67809;55.034;73.462;2023-02-18T04:06:01;38.50;30.00;19.00
78512;PMS5003;67809;55.034;73.462;2023-02-18T04:08:27;42.00;30.25;17.75
78512;PMS5003;67809;55.034;73.462;2023-02-18T04:10:53;36.00;27.50;15.75
78512;PMS5003;67809;55.034;73.462;2023-02-18T04:13:19;35.25;26.50;16.00
78512;PMS5003;67809;55.034;73.462;2023-02-18T04:15:47;34.75;26.50;15.50
78512;PMS5003;67809;55.034;73.462;2023-02-18T04:18:23;32.67;25.67;15.33
78512;PMS5003;67809;55.034;73.462;2023-02-18T04:20:49;33.50;25.50;16.00
78512;PMS5003;67809;55.034;73.462;2023-02-18T04:23:16;36.50;28.00;16.50
78512;PMS5003;67809;55.034;73.462;2023-02-18T04:25:42;37.75;29.00;17.75
78512;PMS5003;67809;55.034;73.462;2023-02-18T04:28:09;42.00;31.25;19.00
78512;PMS5003;67809;55.034;73.462;2023-02-18T04:30:38;37.25;28.50;17.75
78512;PMS5003;67809;55.034;73.462;2023-02-18T04:33:15;40.00;30.25;18.50
78512;PMS5003;67809;55.034;73.462;2023-02-18T04:35:51;38.50;29.50;18.75
78512;PMS5003;67809;55.034;73.462;2023-02-18T04:38:17;39.00;29.25;18.00
78512;PMS5003;67809;55.034;73.462;2023-02-18T04:40:43;41.00;30.00;18.75
78512;PMS5003;67809;55.034;73.462;2023-02-18T04:43:19;39.00;29.50;17.75
78512;PMS5003;67809;55.034;73.462;2023-02-18T04:45:45;36.25;28.00;17.75
78512;PMS5003;67809;55.034;73.462;2023-02-18T04:48:11;48.75;35.50;22.75
78512;PMS5003;67809;55.034;73.462;2023-02-18T04:50:37;44.00;31.67;19.00
78512;PMS5003;67809;55.034;73.462;2023-02-18T04:53:03;40.00;30.50;19.25
78512;PMS5003;67809;55.034;73.462;2023-02-18T04:55:39;44.50;29.00;18.75
78512;PMS5003;67809;55.034;73.462;2023-02-18T04:58:15;34.25;26.00;16.00
78512;PMS5003;67809;55.034;73.462;2023-02-18T05:00:41;28.33;23.00;15.00
78512;PMS5003;67809;55.034;73.462;2023-02-18T05:03:07;29.25;22.75;14.00
78512;PMS5003;67809;55.034;73.462;2023-02-18T05:05:33;39.00;29.00;17.50
78512;PMS5003;67809;55.034;73.462;2023-02-18T05:08:05;41.75;30.00;19.00
78512;PMS5003;67809;55.034;73.462;2023-02-18T05:10:31;37.50;28.50;17.25
78512;PMS5003;67809;55.034;73.462;2023-02-18T05:12:57;37.00;28.00;17.25
78512;PMS5003;67809;55.034;73.462;2023-02-18T05:15:28;37.00;27.50;18.00
78512;PMS5003;67809;55.034;73.462;2023-02-18T05:18:05;33.50;26.25;17.25
78512;PMS5003;67809;55.034;73.462;2023-02-18T05:20:42;36.00;28.00;16.75
78512;PMS5003;67809;55.034;73.462;2023-02-18T05:23:19;34.00;26.00;16.25
78512;PMS5003;67809;55.034;73.462;2023-02-18T05:25:56;33.75;26.00;16.25
78512;PMS5003;67809;55.034;73.462;2023-02-18T05:28:22;34.75;26.50;17.00
78512;PMS5003;67809;55.034;73.462;2023-02-18T05:30:48;34.50;26.25;16.00
78512;PMS5003;67809;55.034;73.462;2023-02-18T05:33:14;32.75;25.25;16.25
78512;PMS5003;67809;55.034;73.462;2023-02-18T05:35:40;35.25;25.50;16.50
78512;PMS5003;67809;55.034;73.462;2023-02-18T05:38:06;33.50;25.50;15.50
78512;PMS5003;67809;55.034;73.462;2023-02-18T05:40:32;33.75;26.00;15.75
78512;PMS5003;67809;55.034;73.462;2023-02-18T05:42:59;33.75;25.50;15.00
78512;PMS5003;67809;55.034;73.462;2023-02-18T05:45:25;35.00;26.25;16.75
78512;PMS5003;67809;55.034;73.462;2023-02-18T05:47:51;32.25;25.00;15.25
78512;PMS5003;67809;55.034;73.462;2023-02-18T05:50:17;33.50;24.50;15.25
78512;PMS5003;67809;55.034;73.462;2023-02-18T05:52:43;29.75;23.25;14.50
78512;PMS5003;67809;55.034;73.462;2023-02-18T05:55:09;33.50;25.75;15.75
78512;PMS5003;67809;55.034;73.462;2023-02-18T05:57:35;39.00;29.00;17.50
78512;PMS5003;67809;55.034;73.462;2023-02-18T06:00:07;39.67;29.00;17.00
78512;PMS5003;67809;55.034;73.462;2023-02-18T06:02:35;38.25;28.00;17.00
78512;PMS5003;67809;55.034;73.462;2023-02-18T06:05:01;38.00;28.25;17.00
78512;PMS5003;67809;55.034;73.462;2023-02-18T06:07:27;34.00;25.75;17.00
78512;PMS5003;67809;55.034;73.462;2023-02-18T06:09:59;36.33;27.67;18.00
78512;PMS5003;67809;55.034;73.462;2023-02-18T06:12:35;34.50;26.00;16.50
78512;PMS5003;67809;55.034;73.462;2023-02-18T06:15:11;32.50;25.00;15.50
78512;PMS5003;67809;55.034;73.462;2023-02-18T06:17:37;37.00;28.00;15.75
78512;PMS5003;67809;55.034;73.462;2023-02-18T06:20:13;35.00;26.00;15.50
78512;PMS5003;67809;55.034;73.462;2023-02-18T06:22:39;47.25;36.50;24.25
78512;PMS5003;67809;55.034;73.462;2023-02-18T06:25:05;37.25;28.25;17.75
78512;PMS5003;67809;55.034;73.462;2023-02-18T06:27:32;31.00;25.50;16.25
78512;PMS5003;67809;55.034;73.462;2023-02-18T06:29:58;36.00;27.67;17.67
78512;PMS5003;67809;55.034;73.462;2023-02-18T06:32:34;37.50;29.25;20.00
78512;PMS5003;67809;55.034;73.462;2023-02-18T06:35:10;40.00;30.00;18.00
78512;PMS5003;67809;55.034;73.462;2023-02-18T06:37:36;40.50;31.00;19.75
78512;PMS5003;67809;55.034;73.462;2023-02-18T06:40:02;35.33;26.00;16.67
78512;PMS5003;67809;55.034;73.462;2023-02-18T06:42:28;39.75;30.00;18.75
78512;PMS5003;67809;55.034;73.462;2023-02-18T06:45:00;39.50;29.75;19.00
78512;PMS5003;67809;55.034;73.462;2023-02-18T06:47:26;41.25;31.50;19.00
78512;PMS5003;67809;55.034;73.462;2023-02-18T06:49:57;43.20;33.00;19.40
78512;PMS5003;67809;55.034;73.462;2023-02-18T06:52:28;41.50;31.00;18.75
78512;PMS5003;67809;55.034;73.462;2023-02-18T06:55:00;40.25;32.00;20.75
78512;PMS5003;67809;55.034;73.462;2023-02-18T06:57:26;41.75;30.25;19.00
78512;PMS5003;67809;55.034;73.462;2023-02-18T06:59:52;38.00;29.00;18.00
78512;PMS5003;67809;55.034;73.462;2023-02-18T07:02:18;41.67;31.33;19.67
78512;PMS5003;67809;55.034;73.462;2023-02-18T07:04:44;46.50;35.75;23.00
78512;PMS5003;67809;55.034;73.462;2023-02-18T07:07:16;44.50;33.00;21.00
78512;PMS5003;67809;55.034;73.462;2023-02-18T07:09:42;39.75;30.50;18.00
78512;PMS5003;67809;55.034;73.462;2023-02-18T07:12:08;37.67;29.67;18.67
78512;PMS5003;67809;55.034;73.462;2023-02-18T07:14:34;43.25;32.75;20.00
78512;PMS5003;67809;55.034;73.462;2023-02-18T07:17:02;36.00;29.00;18.25
78512;PMS5003;67809;55.034;73.462;2023-02-18T07:19:28;35.50;27.75;16.50
78512;PMS5003;67809;55.034;73.462;2023-02-18T07:21:54;32.67;26.00;16.67
78512;PMS5003;67809;55.034;73.462;2023-02-18T07:24:32;33.50;25.25;15.50
78512;PMS5003;67809;55.034;73.462;2023-02-18T07:26:58;38.00;28.25;17.00
78512;PMS5003;67809;55.034;73.462;2023-02-18T07:29:24;34.00;24.00;15.00
78512;PMS5003;67809;55.034;73.462;2023-02-18T07:32:00;33.00;25.00;15.33
78512;PMS5003;67809;55.034;73.462;2023-02-18T07:34:36;39.00;28.75;17.00
78512;PMS5003;67809;55.034;73.462;2023-02-18T07:37:08;38.00;29.00;16.25
78512;PMS5003;67809;55.034;73.462;2023-02-18T07:39:35;32.00;25.00;16.00
78512;PMS5003;67809;55.034;73.462;2023-02-18T07:42:11;32.75;25.75;15.50
78512;PMS5003;67809;55.034;73.462;2023-02-18T07:44:38;40.00;30.50;18.25
78512;PMS5003;67809;55.034;73.462;2023-02-18T07:47:04;36.00;28.00;17.00
78512;PMS5003;67809;55.034;73.462;2023-02-18T07:49:41;34.25;26.75;15.75
78512;PMS5003;67809;55.034;73.462;2023-02-18T07:52:17;41.33;29.67;18.00
78512;PMS5003;67809;55.034;73.462;2023-02-18T07:54:43;42.75;32.25;20.00
78512;PMS5003;67809;55.034;73.462;2023-02-18T07:57:18;42.50;32.75;21.00
78512;PMS5003;67809;55.034;73.462;2023-02-18T07:59:44;41.25;31.00;19.75
78512;PMS5003;67809;55.034;73.462;2023-02-18T08:02:14;40.00;28.33;18.00
78512;PMS5003;67809;55.034;73.462;2023-02-18T08:04:42;42.50;31.00;19.50
78512;PMS5003;67809;55.034;73.462;2023-02-18T08:07:11;37.00;28.00;17.50
78512;PMS5003;67809;55.034;73.462;2023-02-18T08:09:47;34.00;26.00;17.00
78512;PMS5003;67809;55.034;73.462;2023-02-18T08:12:20;37.00;27.50;16.50
78512;PMS5003;67809;55.034;73.462;2023-02-18T08:14:46;39.00;29.00;17.00
78512;PMS5003;67809;55.034;73.462;2023-02-18T08:17:12;38.25;27.75;18.00
78512;PMS5003;67809;55.034;73.462;2023-02-18T08:19:48;42.50;30.75;18.75
78512;PMS5003;67809;55.034;73.462;2023-02-18T08:22:14;38.67;29.00;18.67
78512;PMS5003;67809;55.034;73.462;2023-02-18T08:24:53;35.50;28.00;17.75
78512;PMS5003;67809;55.034;73.462;2023-02-18T08:27:19;41.00;31.25;19.00
78512;PMS5003;67809;55.034;73.462;2023-02-18T08:29:45;39.50;30.00;19.00
78512;PMS5003;67809;55.034;73.462;2023-02-18T08:32:11;35.00;26.33;16.67
78512;PMS5003;67809;55.034;73.462;2023-02-18T08:34:37;40.00;29.25;17.50
78512;PMS5003;67809;55.034;73.462;2023-02-18T08:37:08;40.50;31.00;20.00
78512;PMS5003;67809;55.034;73.462;2023-02-18T08:39:44;38.00;29.25;16.50
78512;PMS5003;67809;55.034;73.462;2023-02-18T08:42:20;42.00;31.67;19.00
78512;PMS5003;67809;55.034;73.462;2023-02-18T08:44:51;37.50;29.00;18.25
78512;PMS5003;67809;55.034;73.462;2023-02-18T08:47:17;42.50;32.00;18.75
78512;PMS5003;67809;55.034;73.462;2023-02-18T08:49:44;45.75;33.25;20.00
78512;PMS5003;67809;55.034;73.462;2023-02-18T08:52:19;44.00;33.00;20.25
78512;PMS5003;67809;55.034;73.462;2023-02-18T08:54:45;43.25;32.25;20.00
78512;PMS5003;67809;55.034;73.462;2023-02-18T08:57:22;42.00;31.75;20.25
78512;PMS5003;67809;55.034;73.462;2023-02-18T08:59:48;40.50;31.50;19.75
78512;PMS5003;67809;55.034;73.462;2023-02-18T09:02:24;41.33;32.00;20.00
78512;PMS5003;67809;55.034;73.462;2023-02-18T09:04:50;43.00;32.00;19.00
78512;PMS5003;67809;55.034;73.462;2023-02-18T09:07:17;41.00;30.50;20.00
78512;PMS5003;67809;55.034;73.462;2023-02-18T09:09:48;42.00;32.00;18.25
78512;PMS5003;67809;55.034;73.462;2023-02-18T09:12:14;40.33;30.33;19.00
78512;PMS5003;67809;55.034;73.462;2023-02-18T09:14:40;43.25;33.00;19.75
78512;PMS5003;67809;55.034;73.462;2023-02-18T09:17:06;38.75;29.50;18.25
78512;PMS5003;67809;55.034;73.462;2023-02-18T09:19:32;42.25;33.00;20.00
78512;PMS5003;67809;55.034;73.462;2023-02-18T09:21:58;47.00;34.00;21.00
78512;PMS5003;67809;55.034;73.462;2023-02-18T09:24:24;42.00;32.00;19.00
78512;PMS5003;67809;55.034;73.462;2023-02-18T09:26:51;40.00;29.75;19.00
78512;PMS5003;67809;55.034;73.462;2023-02-18T09:29:18;42.25;31.75;19.75
78512;PMS5003;67809;55.034;73.462;2023-02-18T09:31:44;45.33;34.67;22.00
78512;PMS5003;67809;55.034;73.462;2023-02-18T09:34:11;41.00;31.25;19.50
78512;PMS5003;67809;55.034;73.462;2023-02-18T09:36:42;37.00;29.25;19.00
78512;PMS5003;67809;55.034;73.462;2023-02-18T09:39:19;40.75;31.25;19.50
78512;PMS5003;67809;55.034;73.462;2023-02-18T09:44:22;42.00;31.50;20.00
78512;PMS5003;67809;55.034;73.462;2023-02-18T09:46:53;45.50;34.00;21.00
78512;PMS5003;67809;55.034;73.462;2023-02-18T09:49:30;45.50;33.25;21.00
78512;PMS5003;67809;55.034;73.462;2023-02-18T09:52:10;46.33;34.67;21.00
78512;PMS5003;67809;55.034;73.462;2023-02-18T09:54:37;43.00;32.25;20.25
78512;PMS5003;67809;55.034;73.462;2023-02-18T09:57:04;41.00;31.00;19.00
78512;PMS5003;67809;55.034;73.462;2023-02-18T09:59:36;47.25;36.50;23.00
78512;PMS5003;67809;55.034;73.462;2023-02-18T10:02:03;47.67;33.67;21.33
78512;PMS5003;67809;55.034;73.462;2023-02-18T10:04:30;45.00;34.00;21.25
78512;PMS5003;67809;55.034;73.462;2023-02-18T10:06:59;46.25;34.00;20.50
78512;PMS5003;67809;55.034;73.462;2023-02-18T10:09:35;45.50;35.25;22.00
78512;PMS5003;67809;55.034;73.462;2023-02-18T10:14:30;42.50;32.50;19.75
78512;PMS5003;67809;55.034;73.462;2023-02-18T10:16:56;48.00;35.25;22.75
78512;PMS5003;67809;55.034;73.462;2023-02-18T10:19:36;40.50;32.00;20.00
78512;PMS5003;67809;55.034;73.462;2023-02-18T10:22:06;44.25;32.50;18.75
78512;PMS5003;67809;55.034;73.462;2023-02-18T10:24:34;41.00;31.00;19.00
78512;PMS5003;67809;55.034;73.462;2023-02-18T10:27:01;40.25;30.75;19.00
78512;PMS5003;67809;55.034;73.462;2023-02-18T10:29:28;44.00;32.00;19.75
78512;PMS5003;67809;55.034;73.462;2023-02-18T10:32:13;41.75;32.00;19.50
78512;PMS5003;67809;55.034;73.462;2023-02-18T10:37:47;44.00;32.75;19.75
78512;PMS5003;67809;55.034;73.462;2023-02-18T10:45:44;47.50;35.25;22.25
78512;PMS5003;67809;55.034;73.462;2023-02-18T10:50:46;50.00;38.25;22.25
78512;PMS5003;67809;55.034;73.462;2023-02-18T10:55:43;44.25;33.75;21.00
78512;PMS5003;67809;55.034;73.462;2023-02-18T10:58:44;46.50;34.50;21.50
78512;PMS5003;67809;55.034;73.462;2023-02-18T11:01:03;39.50;31.50;20.50
78512;PMS5003;67809;55.034;73.462;2023-02-18T11:03:40;41.00;31.67;20.67
78512;PMS5003;67809;55.034;73.462;2023-02-18T11:08:46;39.75;30.50;19.25
78512;PMS5003;67809;55.034;73.462;2023-02-18T11:14:12;46.67;34.33;21.00
78512;PMS5003;67809;55.034;73.462;2023-02-18T11:16:44;42.00;31.75;18.75
78512;PMS5003;67809;55.034;73.462;2023-02-18T11:19:30;52.75;35.75;21.00
78512;PMS5003;67809;55.034;73.462;2023-02-18T11:25:00;40.00;31.33;19.33
78512;PMS5003;67809;55.034;73.462;2023-02-18T11:27:43;54.25;38.25;23.00
78512;PMS5003;67809;55.034;73.462;2023-02-18T11:30:23;48.50;36.50;22.50
78512;PMS5003;67809;55.034;73.462;2023-02-18T11:33:07;45.00;34.00;20.67
78512;PMS5003;67809;55.034;73.462;2023-02-18T11:35:51;45.25;34.00;21.50
78512;PMS5003;67809;55.034;73.462;2023-02-18T11:41:08;39.00;30.50;19.00
78512;PMS5003;67809;55.034;73.462;2023-02-18T11:43:35;41.67;31.33;20.33
78512;PMS5003;67809;55.034;73.462;2023-02-18T11:46:07;42.25;32.00;20.50
78512;PMS5003;67809;55.034;73.462;2023-02-18T11:48:34;43.50;33.50;21.00
78512;PMS5003;67809;55.034;73.462;2023-02-18T11:51:00;38.00;30.00;19.00
78512;PMS5003;67809;55.034;73.462;2023-02-18T11:53:35;43.00;31.67;19.00
78512;PMS5003;67809;55.034;73.462;2023-02-18T11:56:05;43.00;30.75;18.50
78512;PMS5003;67809;55.034;73.462;2023-02-18T11:58:42;45.00;32.75;19.75
78512;PMS5003;67809;55.034;73.462;2023-02-18T12:01:14;49.00;34.50;21.50
78512;PMS5003;67809;55.034;73.462;2023-02-18T12:03:54;46.67;35.00;22.33
78512;PMS5003;67809;55.034;73.462;2023-02-18T12:06:24;47.50;34.75;22.00
78512;PMS5003;67809;55.034;73.462;2023-02-18T12:08:53;50.75;38.25;24.00
78512;PMS5003;67809;55.034;73.462;2023-02-18T12:11:30;50.00;38.00;25.00
78512;PMS5003;67809;55.034;73.462;2023-02-18T12:14:12;47.25;35.25;21.50
78512;PMS5003;67809;55.034;73.462;2023-02-18T12:19:12;46.25;34.00;21.75
78512;PMS5003;67809;55.034;73.462;2023-02-18T12:24:40;44.75;34.00;20.75
78512;PMS5003;67809;55.034;73.462;2023-02-18T12:29:58;53.25;39.50;24.50
78512;PMS5003;67809;55.034;73.462;2023-02-18T12:35:17;54.00;40.67;24.67
78512;PMS5003;67809;55.034;73.462;2023-02-18T12:43:13;52.25;39.25;24.00
78512;PMS5003;67809;55.034;73.462;2023-02-18T12:48:28;49.00;37.50;24.00
78512;PMS5003;67809;55.034;73.462;2023-02-18T12:53:35;58.00;43.50;26.00
78512;PMS5003;67809;55.034;73.462;2023-02-18T12:58:46;76.50;56.00;33.75
78512;PMS5003;67809;55.034;73.462;2023-02-18T13:16:47;76.00;54.50;33.50
78512;PMS5003;67809;55.034;73.462;2023-02-18T13:19:26;72.25;51.25;32.00
78512;PMS5003;67809;55.034;73.462;2023-02-18T13:22:05;75.00;51.75;31.00
78512;PMS5003;67809;55.034;73.462;2023-02-18T13:24:44;70.50;49.75;29.75
78512;PMS5003;67809;55.034;73.462;2023-02-18T13:30:16;75.00;52.75;32.00
78512;PMS5003;67809;55.034;73.462;2023-02-18T13:40:28;79.25;60.50;34.25
78512;PMS5003;67809;55.034;73.462;2023-02-18T13:43:17;78.50;58.50;34.00
78512;PMS5003;67809;55.034;73.462;2023-02-18T13:48:30;74.00;52.00;31.25
78512;PMS5003;67809;55.034;73.462;2023-02-18T13:51:03;62.50;45.00;27.25
78512;PMS5003;67809;55.034;73.462;2023-02-18T13:53:36;60.50;45.00;27.00
78512;PMS5003;67809;55.034;73.462;2023-02-18T13:56:10;60.50;45.25;27.50
78512;PMS5003;67809;55.034;73.462;2023-02-18T13:58:49;70.25;50.25;30.50
78512;PMS5003;67809;55.034;73.462;2023-02-18T14:01:30;64.00;46.25;30.00
78512;PMS5003;67809;55.034;73.462;2023-02-18T14:09:45;52.50;38.00;23.50
78512;PMS5003;67809;55.034;73.462;2023-02-18T14:12:25;59.00;41.50;25.25
78512;PMS5003;67809;55.034;73.462;2023-02-18T14:15:40;51.00;38.75;22.50
78512;PMS5003;67809;55.034;73.462;2023-02-18T14:25:52;55.25;40.00;25.50
78512;PMS5003;67809;55.034;73.462;2023-02-18T14:29:04;52.00;39.00;23.25
78512;PMS5003;67809;55.034;73.462;2023-02-18T14:34:52;53.50;40.25;24.75
78512;PMS5003;67809;55.034;73.462;2023-02-18T14:41:51;59.00;45.25;28.75
78512;PMS5003;67809;55.034;73.462;2023-02-18T14:51:47;57.25;42.25;26.75
78512;PMS5003;67809;55.034;73.462;2023-02-18T14:54:16;52.50;39.00;24.00
78512;PMS5003;67809;55.034;73.462;2023-02-18T14:56:54;57.50;43.50;25.25
78512;PMS5003;67809;55.034;73.462;2023-02-18T14:59:35;58.00;41.50;25.25
78512;PMS5003;67809;55.034;73.462;2023-02-18T15:02:20;61.50;45.50;27.25
78512;PMS5003;67809;55.034;73.462;2023-02-18T15:04:47;60.00;43.00;24.00
78512;PMS5003;67809;55.034;73.462;2023-02-18T15:07:17;54.50;40.25;24.00
78512;PMS5003;67809;55.034;73.462;2023-02-18T15:09:47;58.50;42.50;25.00
78512;PMS5003;67809;55.034;73.462;2023-02-18T15:12:18;53.00;38.50;23.00
78512;PMS5003;67809;55.034;73.462;2023-02-18T15:14:54;49.50;37.00;24.00
78512;PMS5003;67809;55.034;73.462;2023-02-18T15:17:24;55.25;40.50;23.50
78512;PMS5003;67809;55.034;73.462;2023-02-18T15:19:57;57.25;42.00;26.50
78512;PMS5003;67809;55.034;73.462;2023-02-18T15:22:26;49.50;38.25;23.50
78512;PMS5003;67809;55.034;73.462;2023-02-18T15:24:59;54.40;39.80;25.60
78512;PMS5003;67809;55.034;73.462;2023-02-18T15:27:27;54.00;39.50;24.75
78512;PMS5003;67809;55.034;73.462;2023-02-18T15:29:58;55.50;39.50;23.25
78512;PMS5003;67809;55.034;73.462;2023-02-18T15:32:30;52.25;36.50;22.75
78512;PMS5003;67809;55.034;73.462;2023-02-18T15:34:58;57.00;40.00;23.00
78512;PMS5003;67809;55.034;73.462;2023-02-18T15:37:29;48.67;36.33;22.00
78512;PMS5003;67809;55.034;73.462;2023-02-18T15:40:01;45.50;33.00;20.50
78512;PMS5003;67809;55.034;73.462;2023-02-18T15:42:30;52.50;40.00;24.00
78512;PMS5003;67809;55.034;73.462;2023-02-18T15:45:02;60.50;44.00;25.00
78512;PMS5003;67809;55.034;73.462;2023-02-18T15:47:34;47.33;36.00;23.00
78512;PMS5003;67809;55.034;73.462;2023-02-18T15:50:18;57.75;42.75;25.75
78512;PMS5003;67809;55.034;73.462;2023-02-18T15:52:50;54.75;40.00;25.00
78512;PMS5003;67809;55.034;73.462;2023-02-18T15:58:11;48.50;35.25;20.50
78512;PMS5003;67809;55.034;73.462;2023-02-18T16:00:49;49.25;36.25;22.00
78512;PMS5003;67809;55.034;73.462;2023-02-18T16:03:58;48.75;36.50;22.00
78512;PMS5003;67809;55.034;73.462;2023-02-18T16:06:09;43.67;32.00;19.00
78512;PMS5003;67809;55.034;73.462;2023-02-18T16:08:36;53.50;40.00;23.50
78512;PMS5003;67809;55.034;73.462;2023-02-18T16:11:08;55.50;40.50;25.50
78512;PMS5003;67809;55.034;73.462;2023-02-18T16:13:36;63.50;44.50;27.00
78512;PMS5003;67809;55.034;73.462;2023-02-18T16:16:19;55.50;40.00;23.25
78512;PMS5003;67809;55.034;73.462;2023-02-18T16:18:55;58.25;42.50;26.00
78512;PMS5003;67809;55.034;73.462;2023-02-18T16:21:23;58.25;41.25;23.75
78512;PMS5003;67809;55.034;73.462;2023-02-18T16:29:11;45.25;34.00;21.00
78512;PMS5003;67809;55.034;73.462;2023-02-18T16:31:38;41.50;31.00;20.75
78512;PMS5003;67809;55.034;73.462;2023-02-18T16:34:04;50.25;37.00;23.00
78512;PMS5003;67809;55.034;73.462;2023-02-18T16:36:31;42.00;32.00;20.00
78512;PMS5003;67809;55.034;73.462;2023-02-18T16:38:57;46.25;35.25;20.75
78512;PMS5003;67809;55.034;73.462;2023-02-18T16:41:26;44.50;33.00;19.25
78512;PMS5003;67809;55.034;73.462;2023-02-18T16:43:58;49.75;34.75;19.75
78512;PMS5003;67809;55.034;73.462;2023-02-18T16:46:24;56.25;38.00;23.00